Time;durP1;ratioP1;P1;durP2;ratioP2;P2;SDS_P1;SDS_P2;PMS_P1;PMS_P2;Temp;Humidity;BMP_temperature;BMP_pressure;BME280_temperature;BME280_humidity;BME280_pressure;Samples;Min_cycle;Max_cycle;Signal;HPM_P1;HPM_P2
2023/05/21 00:02:10;;;;;;;5.93;5.30;;;;;;;;;;5056530;28;20202;-83
2023/05/21 00:04:39;;;;;;;4.85;4.45;;;;;;;;;;5056354;28;20225;-83
2023/05/21 00:07:07;;;;;;;5.40;4.93;;;;;;;;;;5056185;28;20253;-83
2023/05/21 00:09:35;;;;;;;5.18;4.78;;;;;;;;;;5055430;28;20189;-83
2023/05/21 00:12:02;;;;;;;4.85;4.45;;;;;;;;;;5055971;28;20293;-83
2023/05/21 00:14:30;;;;;;;5.18;3.85;;;;;;;;;;5055848;28;20214;-82
2023/05/21 00:16:58;;;;;;;3.85;3.55;;;;;;;;;;5055659;28;20660;-82
2023/05/21 00:19:26;;;;;;;4.55;3.97;;;;;;;;;;5056078;28;20284;-83
2023/05/21 00:21:54;;;;;;;4.78;4.38;;;;;;;;;;5055761;28;20297;-82
2023/05/21 00:24:22;;;;;;;5.32;4.82;;;;;;;;;;5056440;28;20225;-83
2023/05/21 00:26:49;;;;;;;6.50;5.88;;;;;;;;;;5056977;28;20261;-83
2023/05/21 00:29:17;;;;;;;7.70;4.57;;;;;;;;;;5057858;28;20288;-83
2023/05/21 00:31:44;;;;;;;5.28;4.78;;;;;;;;;;5057666;28;20304;-82
2023/05/21 00:34:13;;;;;;;5.07;4.57;;;;;;;;;;5058319;28;20260;-82
2023/05/21 00:36:44;;;;;;;5.22;4.72;;;;;;;;;;5058147;28;20284;-83
2023/05/21 00:39:12;;;;;;;4.95;4.55;;;;;;;;;;5057344;28;20198;-83
2023/05/21 00:41:41;;;;;;;5.22;4.82;;;;;;;;;;5068422;23;20299;-80
2023/05/21 00:44:09;;;;;;;5.30;4.80;;;;;;;;;;5053991;28;20217;-80
2023/05/21 00:46:37;;;;;;;4.85;4.35;;;;;;;;;;5054023;28;20218;-80
2023/05/21 00:49:05;;;;;;;6.00;5.50;;;;;;;;;;5053541;28;20210;-80
2023/05/21 00:51:34;;;;;;;4.75;4.32;;;;;;;;;;5053787;28;20201;-81
2023/05/21 00:54:02;;;;;;;4.18;3.83;;;;;;;;;;5053582;28;20204;-80
2023/05/21 00:56:29;;;;;;;6.40;4.38;;;;;;;;;;5053369;28;20855;-80
2023/05/21 00:58:57;;;;;;;4.82;4.43;;;;;;;;;;5053677;28;20201;-80
2023/05/21 01:01:25;;;;;;;4.70;4.30;;;;;;;;;;5053813;28;20208;-80
2023/05/21 01:03:56;;;;;;;4.60;4.20;;;;;;;;;;5053521;28;20230;-80
2023/05/21 01:06:24;;;;;;;4.18;3.78;;;;;;;;;;5053508;28;20316;-80
2023/05/21 01:08:52;;;;;;;4.13;3.78;;;;;;;;;;5052961;28;20707;-80
2023/05/21 01:11:21;;;;;;;4.25;3.95;;;;;;;;;;5052929;28;20212;-80
2023/05/21 01:13:49;;;;;;;5.15;4.70;;;;;;;;;;5053637;28;20198;-81
2023/05/21 01:16:17;;;;;;;5.90;5.38;;;;;;;;;;5052762;28;20218;-80
2023/05/21 01:18:45;;;;;;;6.03;5.43;;;;;;;;;;5052847;28;20213;-80
2023/05/21 01:21:16;;;;;;;4.93;4.53;;;;;;;;;;5053207;28;20213;-80
2023/05/21 01:23:44;;;;;;;4.63;4.22;;;;;;;;;;5053228;28;20222;-81
2023/05/21 01:26:12;;;;;;;5.18;4.68;;;;;;;;;;5052990;28;20585;-80
2023/05/21 01:28:41;;;;;;;7.13;6.10;;;;;;;;;;5052728;28;20283;-80
2023/05/21 01:31:19;;;;;;;5.13;4.72;;;;;;;;;;5053367;28;20339;-80
2023/05/21 01:33:50;;;;;;;5.50;5.10;;;;;;;;;;5053606;28;20208;-80
2023/05/21 01:36:22;;;;;;;6.10;5.50;;;;;;;;;;5053155;28;20231;-80
2023/05/21 01:38:57;;;;;;;5.70;5.20;;;;;;;;;;5053544;28;20213;-80
2023/05/21 01:41:26;;;;;;;5.53;5.03;;;;;;;;;;5053402;28;20677;-80
2023/05/21 01:43:55;;;;;;;4.50;4.10;;;;;;;;;;5052510;28;20248;-81
2023/05/21 01:46:25;;;;;;;5.63;5.10;;;;;;;;;;5052700;28;20218;-80
2023/05/21 01:48:53;;;;;;;5.30;4.82;;;;;;;;;;5052816;28;20216;-80
2023/05/21 01:51:21;;;;;;;5.85;5.38;;;;;;;;;;5052633;28;20208;-80
2023/05/21 01:53:48;;;;;;;5.20;4.75;;;;;;;;;;5052966;28;20285;-80
2023/05/21 01:56:17;;;;;;;5.70;5.18;;;;;;;;;;5052598;28;20218;-80
2023/05/21 01:58:44;;;;;;;6.38;5.50;;;;;;;;;;5052795;28;20237;-81
2023/05/21 02:01:12;;;;;;;6.72;5.80;;;;;;;;;;5052574;28;20197;-81
2023/05/21 02:03:39;;;;;;;5.68;5.18;;;;;;;;;;5052550;28;20217;-81
2023/05/21 02:06:07;;;;;;;5.70;5.20;;;;;;;;;;5052179;28;20225;-80
2023/05/21 02:08:34;;;;;;;4.97;4.57;;;;;;;;;;5052177;28;20205;-80
2023/05/21 02:11:02;;;;;;;4.75;4.35;;;;;;;;;;5052401;28;20210;-81
2023/05/21 02:13:31;;;;;;;5.30;4.80;;;;;;;;;;5051921;28;20197;-80
2023/05/21 02:16:00;;;;;;;5.53;4.85;;;;;;;;;;5052279;28;20312;-80
2023/05/21 02:18:28;;;;;;;5.80;5.10;;;;;;;;;;5052225;28;20289;-80
2023/05/21 02:20:55;;;;;;;5.70;5.20;;;;;;;;;;5052453;28;20654;-80
2023/05/21 02:23:22;;;;;;;6.95;5.57;;;;;;;;;;5052554;28;20204;-81
2023/05/21 02:25:50;;;;;;;5.10;4.70;;;;;;;;;;5052071;28;20229;-80
2023/05/21 02:28:17;;;;;;;4.95;4.43;;;;;;;;;;5051772;28;20212;-80
2023/05/21 02:30:46;;;;;;;4.38;4.07;;;;;;;;;;5053154;28;20198;-81
2023/05/21 02:33:14;;;;;;;5.65;5.18;;;;;;;;;;5052015;28;20203;-80
2023/05/21 02:35:42;;;;;;;5.70;5.22;;;;;;;;;;5052203;28;20232;-80
2023/05/21 02:38:12;;;;;;;5.47;4.95;;;;;;;;;;5052049;28;20252;-80
2023/05/21 02:40:39;;;;;;;5.85;5.35;;;;;;;;;;5052294;28;20233;-81
2023/05/21 02:43:07;;;;;;;5.50;5.00;;;;;;;;;;5052175;28;20206;-80
2023/05/21 02:45:34;;;;;;;11.35;6.25;;;;;;;;;;5051680;28;20604;-80
2023/05/21 02:48:03;;;;;;;6.28;5.68;;;;;;;;;;5052194;28;20201;-80
2023/05/21 02:50:30;;;;;;;8.07;6.28;;;;;;;;;;5052360;28;20201;-80
2023/05/21 02:52:59;;;;;;;7.75;7.05;;;;;;;;;;5052127;28;20216;-80
2023/05/21 02:55:26;;;;;;;7.13;6.43;;;;;;;;;;5055537;28;20709;-80
2023/05/21 02:57:53;;;;;;;7.03;6.43;;;;;;;;;;5055604;28;20207;-81
2023/05/21 03:00:21;;;;;;;7.13;6.43;;;;;;;;;;5056093;28;20206;-80
2023/05/21 03:02:48;;;;;;;7.88;7.07;;;;;;;;;;5056228;28;20201;-80
2023/05/21 03:05:17;;;;;;;6.57;5.90;;;;;;;;;;5055818;28;20251;-80
2023/05/21 03:07:45;;;;;;;6.03;5.53;;;;;;;;;;5055494;28;20585;-80
2023/05/21 03:10:12;;;;;;;8.25;7.45;;;;;;;;;;5055507;28;20737;-80
2023/05/21 03:12:39;;;;;;;7.93;6.57;;;;;;;;;;5055695;28;20206;-81
2023/05/21 03:15:08;;;;;;;8.25;7.45;;;;;;;;;;5055215;28;20720;-80
2023/05/21 03:17:36;;;;;;;7.30;6.60;;;;;;;;;;5055688;28;20208;-80
2023/05/21 03:20:04;;;;;;;7.55;6.85;;;;;;;;;;5055310;28;20685;-80
2023/05/21 03:22:33;;;;;;;8.32;7.53;;;;;;;;;;5055361;28;20208;-80
2023/05/21 03:25:01;;;;;;;7.60;6.90;;;;;;;;;;5055312;28;20226;-80
2023/05/21 03:27:28;;;;;;;6.40;5.80;;;;;;;;;;5055426;28;20731;-81
2023/05/21 03:29:58;;;;;;;6.82;6.18;;;;;;;;;;5055806;28;20674;-80
2023/05/21 03:32:25;;;;;;;6.90;6.30;;;;;;;;;;5055406;28;20206;-80
2023/05/21 03:34:53;;;;;;;6.70;6.05;;;;;;;;;;5054850;28;20202;-81
2023/05/21 03:37:20;;;;;;;7.07;6.40;;;;;;;;;;5055294;28;20201;-81
2023/05/21 03:39:49;;;;;;;7.95;7.20;;;;;;;;;;5055258;28;20228;-80
2023/05/21 03:42:16;;;;;;;6.22;5.63;;;;;;;;;;5055154;28;20219;-80
2023/05/21 03:44:43;;;;;;;6.68;6.07;;;;;;;;;;5054747;28;20227;-80
2023/05/21 03:47:11;;;;;;;8.27;7.55;;;;;;;;;;5054481;28;20202;-80
2023/05/21 03:49:38;;;;;;;12.57;7.60;;;;;;;;;;5054790;28;20214;-80
2023/05/21 03:52:06;;;;;;;9.20;8.38;;;;;;;;;;5055182;28;20205;-80
2023/05/21 03:54:33;;;;;;;8.75;7.93;;;;;;;;;;5054955;28;20202;-80
2023/05/21 03:57:02;;;;;;;7.38;6.68;;;;;;;;;;5055029;28;20236;-80
2023/05/21 03:59:30;;;;;;;8.50;6.63;;;;;;;;;;5054733;28;20206;-80
2023/05/21 04:01:57;;;;;;;8.35;6.75;;;;;;;;;;5054536;28;20211;-80
2023/05/21 04:04:25;;;;;;;7.82;7.13;;;;;;;;;;5054310;28;20206;-81
2023/05/21 04:06:53;;;;;;;7.78;7.00;;;;;;;;;;5053290;28;20232;-80
2023/05/21 04:09:20;;;;;;;7.75;7.07;;;;;;;;;;5054279;28;20202;-80
2023/05/21 04:11:48;;;;;;;7.15;6.47;;;;;;;;;;5055025;28;20208;-80
2023/05/21 04:14:17;;;;;;;9.02;8.20;;;;;;;;;;5054509;28;20603;-80
2023/05/21 04:16:44;;;;;;;8.70;7.82;;;;;;;;;;5053944;28;20228;-80
2023/05/21 04:19:11;;;;;;;7.90;7.20;;;;;;;;;;5054022;28;20205;-80
2023/05/21 04:21:39;;;;;;;8.52;7.72;;;;;;;;;;5054434;28;20236;-80
2023/05/21 04:24:06;;;;;;;7.85;7.05;;;;;;;;;;5053972;28;20210;-80
2023/05/21 04:26:34;;;;;;;7.30;6.70;;;;;;;;;;5053777;28;20226;-80
2023/05/21 04:29:03;;;;;;;8.32;7.63;;;;;;;;;;5053502;28;20229;-80
2023/05/21 04:31:32;;;;;;;7.97;7.25;;;;;;;;;;5054457;28;20204;-80
2023/05/21 04:34:00;;;;;;;7.43;6.68;;;;;;;;;;5054177;28;20212;-81
2023/05/21 04:36:28;;;;;;;7.47;6.78;;;;;;;;;;5054350;28;20281;-80
2023/05/21 04:38:56;;;;;;;8.27;7.57;;;;;;;;;;5053940;28;20201;-80
2023/05/21 04:41:23;;;;;;;7.88;7.13;;;;;;;;;;5054061;28;20210;-80
2023/05/21 04:43:53;;;;;;;8.63;7.78;;;;;;;;;;5053444;28;20684;-80
2023/05/21 04:46:23;;;;;;;7.85;7.10;;;;;;;;;;5053888;28;20228;-80
2023/05/21 04:48:53;;;;;;;7.88;7.07;;;;;;;;;;5053946;28;20206;-81
2023/05/21 04:51:23;;;;;;;7.05;6.43;;;;;;;;;;5053708;28;20206;-80
2023/05/21 04:53:50;;;;;;;8.20;7.50;;;;;;;;;;5053776;28;20205;-80
2023/05/21 04:56:18;;;;;;;8.77;7.88;;;;;;;;;;5054049;28;20249;-80
2023/05/21 04:58:46;;;;;;;8.65;7.90;;;;;;;;;;5053214;28;20752;-80
2023/05/21 05:01:14;;;;;;;8.07;6.90;;;;;;;;;;5053777;28;20304;-80
2023/05/21 05:03:41;;;;;;;8.13;7.40;;;;;;;;;;5053666;28;20212;-80
2023/05/21 05:06:10;;;;;;;8.38;7.35;;;;;;;;;;5053192;28;20226;-80
2023/05/21 05:08:37;;;;;;;7.15;6.45;;;;;;;;;;5053352;28;20209;-81
2023/05/21 05:11:05;;;;;;;8.50;7.32;;;;;;;;;;5053652;28;20202;-80
2023/05/21 05:13:33;;;;;;;8.25;7.45;;;;;;;;;;5052972;28;20623;-80
2023/05/21 05:16:01;;;;;;;8.95;7.78;;;;;;;;;;5053137;28;20220;-81
2023/05/21 05:18:29;;;;;;;8.02;7.32;;;;;;;;;;5053074;28;20630;-80
2023/05/21 05:20:56;;;;;;;8.20;7.40;;;;;;;;;;5053555;28;20206;-80
2023/05/21 05:23:25;;;;;;;9.15;8.25;;;;;;;;;;5053305;28;20292;-81
2023/05/21 05:25:52;;;;;;;11.20;10.07;;;;;;;;;;5053137;28;20740;-80
2023/05/21 05:28:20;;;;;;;10.43;9.32;;;;;;;;;;5053019;28;20210;-80
2023/05/21 05:30:48;;;;;;;8.43;7.68;;;;;;;;;;5053262;28;20198;-80
2023/05/21 05:33:15;;;;;;;7.65;6.95;;;;;;;;;;5052487;28;20212;-81
2023/05/21 05:35:43;;;;;;;6.97;6.28;;;;;;;;;;5052475;28;20318;-80
2023/05/21 05:38:10;;;;;;;7.00;6.30;;;;;;;;;;5052415;28;20205;-81
2023/05/21 05:40:39;;;;;;;6.80;5.95;;;;;;;;;;5052992;28;20198;-79
2023/05/21 05:43:07;;;;;;;7.40;6.75;;;;;;;;;;5052864;28;20670;-79
2023/05/21 05:45:34;;;;;;;9.50;8.60;;;;;;;;;;5052528;28;20221;-80
2023/05/21 05:48:02;;;;;;;7.50;6.80;;;;;;;;;;5052564;28;20676;-80
2023/05/21 05:50:30;;;;;;;9.32;7.80;;;;;;;;;;5052212;28;20200;-79
2023/05/21 05:52:57;;;;;;;9.00;7.75;;;;;;;;;;5052345;28;20227;-79
2023/05/21 05:55:25;;;;;;;6.22;5.65;;;;;;;;;;5052190;28;20247;-79
2023/05/21 05:57:54;;;;;;;7.25;6.50;;;;;;;;;;5052157;28;20198;-79
2023/05/21 06:00:21;;;;;;;8.75;7.35;;;;;;;;;;5053310;28;20300;-81
2023/05/21 06:02:49;;;;;;;10.05;8.50;;;;;;;;;;5052755;28;20679;-79
2023/05/21 06:05:16;;;;;;;7.30;6.60;;;;;;;;;;5052213;28;20227;-78
2023/05/21 06:07:44;;;;;;;8.07;7.35;;;;;;;;;;5052207;28;20228;-79
2023/05/21 06:10:11;;;;;;;8.25;7.03;;;;;;;;;;5052402;28;20606;-80
2023/05/21 06:12:39;;;;;;;6.88;6.28;;;;;;;;;;5052184;28;20208;-79
2023/05/21 06:15:09;;;;;;;7.20;6.60;;;;;;;;;;5052310;28;20581;-79
2023/05/21 06:17:37;;;;;;;6.93;6.32;;;;;;;;;;5051787;28;20276;-79
2023/05/21 06:20:06;;;;;;;7.25;6.57;;;;;;;;;;5051639;28;20212;-79
2023/05/21 06:22:33;;;;;;;10.15;8.60;;;;;;;;;;5052201;28;20198;-79
2023/05/21 06:25:01;;;;;;;8.77;7.97;;;;;;;;;;5051964;28;20217;-79
2023/05/21 06:27:29;;;;;;;9.07;8.25;;;;;;;;;;5069709;22;20225;-84
2023/05/21 06:29:57;;;;;;;8.25;7.50;;;;;;;;;;5056078;28;20212;-84
2023/05/21 06:32:26;;;;;;;8.52;7.72;;;;;;;;;;5054978;28;20217;-84
2023/05/21 06:34:53;;;;;;;7.85;7.20;;;;;;;;;;5055109;28;20300;-84
2023/05/21 06:37:22;;;;;;;8.07;7.13;;;;;;;;;;5048963;28;20224;-83
2023/05/21 06:39:49;;;;;;;8.65;7.75;;;;;;;;;;5048296;28;20194;-84
2023/05/21 06:42:17;;;;;;;8.20;7.40;;;;;;;;;;5055451;28;20228;-85
2023/05/21 06:44:45;;;;;;;9.13;8.18;;;;;;;;;;5062620;28;20235;-85
2023/05/21 06:47:12;;;;;;;9.18;8.38;;;;;;;;;;5063049;28;20289;-85
2023/05/21 06:49:41;;;;;;;8.75;7.88;;;;;;;;;;5057123;28;20209;-84
2023/05/21 06:52:09;;;;;;;8.15;7.43;;;;;;;;;;5056191;28;20225;-85
2023/05/21 06:54:36;;;;;;;7.10;6.40;;;;;;;;;;5056101;28;20582;-83
2023/05/21 06:57:04;;;;;;;7.10;6.50;;;;;;;;;;5056796;28;20724;-83
2023/05/21 06:59:31;;;;;;;9.32;8.43;;;;;;;;;;5060877;28;20209;-81
2023/05/21 07:01:59;;;;;;;9.35;8.55;;;;;;;;;;5061315;28;20288;-83
2023/05/21 07:04:26;;;;;;;10.13;9.13;;;;;;;;;;5054362;28;20206;-84
2023/05/21 07:06:55;;;;;;;11.07;9.98;;;;;;;;;;5055627;28;20283;-83
2023/05/21 07:09:23;;;;;;;9.65;8.75;;;;;;;;;;5055247;28;20288;-83
2023/05/21 07:11:51;;;;;;;9.05;7.93;;;;;;;;;;5054375;28;20229;-83
2023/05/21 07:14:19;;;;;;;7.30;6.60;;;;;;;;;;5056658;28;20213;-83
2023/05/21 07:16:46;;;;;;;9.23;8.32;;;;;;;;;;5055297;28;20232;-83
2023/05/21 07:19:15;;;;;;;7.70;7.00;;;;;;;;;;5055277;28;20226;-83
2023/05/21 07:21:42;;;;;;;8.10;7.30;;;;;;;;;;5055296;28;20589;-83
2023/05/21 07:24:11;;;;;;;11.77;10.65;;;;;;;;;;5057171;28;20610;-83
2023/05/21 07:26:39;;;;;;;8.85;7.63;;;;;;;;;;5055964;28;20321;-85
2023/05/21 07:29:06;;;;;;;8.40;7.70;;;;;;;;;;5059727;28;20210;-84
2023/05/21 07:31:34;;;;;;;9.80;8.88;;;;;;;;;;5063107;28;20673;-84
2023/05/21 07:34:01;;;;;;;11.18;10.18;;;;;;;;;;5063622;28;20240;-82
2023/05/21 07:36:29;;;;;;;9.45;8.65;;;;;;;;;;5065644;28;20249;-82
2023/05/21 07:38:57;;;;;;;8.68;7.90;;;;;;;;;;5059601;28;20205;-82
2023/05/21 07:41:26;;;;;;;12.18;11.05;;;;;;;;;;5059431;28;20197;-84
2023/05/21 07:43:53;;;;;;;11.93;10.60;;;;;;;;;;5060683;28;20313;-85
2023/05/21 07:46:21;;;;;;;10.10;8.98;;;;;;;;;;5056222;28;20214;-85
2023/05/21 07:48:48;;;;;;;11.60;10.50;;;;;;;;;;5056572;28;20310;-85
2023/05/21 07:51:16;;;;;;;9.00;8.20;;;;;;;;;;5055974;28;20202;-83
2023/05/21 07:53:44;;;;;;;11.52;10.43;;;;;;;;;;5055419;28;20197;-84
2023/05/21 07:56:11;;;;;;;9.93;8.90;;;;;;;;;;5055698;28;20595;-84
2023/05/21 07:58:42;;;;;;;11.45;10.18;;;;;;;;;;5060782;28;20297;-84
2023/05/21 08:01:10;;;;;;;11.18;10.07;;;;;;;;;;5056493;28;20285;-85
2023/05/21 08:03:37;;;;;;;11.55;10.40;;;;;;;;;;5059241;28;20296;-85
2023/05/21 08:06:05;;;;;;;11.07;10.07;;;;;;;;;;5056983;28;20304;-83
2023/05/21 08:08:33;;;;;;;10.95;9.82;;;;;;;;;;5054426;28;20229;-83
2023/05/21 08:11:00;;;;;;;10.95;9.75;;;;;;;;;;5053594;28;20296;-82
2023/05/21 08:13:28;;;;;;;11.57;10.40;;;;;;;;;;5054596;28;20206;-83
2023/05/21 08:15:56;;;;;;;11.48;10.30;;;;;;;;;;5054522;28;20312;-82
2023/05/21 08:18:24;;;;;;;11.32;10.30;;;;;;;;;;5054522;28;20352;-84
2023/05/21 08:20:51;;;;;;;12.23;11.13;;;;;;;;;;5059327;28;20285;-82
2023/05/21 08:23:19;;;;;;;10.43;9.43;;;;;;;;;;5054423;28;20205;-84
2023/05/21 08:25:46;;;;;;;9.30;8.07;;;;;;;;;;5054277;28;20201;-82
2023/05/21 08:28:14;;;;;;;10.30;9.32;;;;;;;;;;5053860;28;20221;-84
2023/05/21 08:30:41;;;;;;;9.70;8.75;;;;;;;;;;5055143;28;20205;-83
2023/05/21 08:33:10;;;;;;;9.32;8.45;;;;;;;;;;5056065;28;20294;-83
2023/05/21 08:35:37;;;;;;;9.10;8.20;;;;;;;;;;5057339;28;20236;-82
2023/05/21 08:38:05;;;;;;;11.68;10.57;;;;;;;;;;5055312;28;20729;-82
2023/05/21 08:40:32;;;;;;;12.07;10.80;;;;;;;;;;5054189;28;20210;-83
2023/05/21 08:43:00;;;;;;;9.52;8.73;;;;;;;;;;5054792;28;20202;-83
2023/05/21 08:45:28;;;;;;;11.52;10.40;;;;;;;;;;5054959;28;20202;-83
2023/05/21 08:47:57;;;;;;;10.80;9.82;;;;;;;;;;5054684;28;20317;-83
2023/05/21 08:50:28;;;;;;;9.88;8.88;;;;;;;;;;5054308;28;20204;-84
2023/05/21 08:52:57;;;;;;;8.38;7.68;;;;;;;;;;5053794;28;20198;-83
2023/05/21 08:55:25;;;;;;;9.60;8.75;;;;;;;;;;5054189;28;20210;-82
2023/05/21 08:57:54;;;;;;;9.50;8.60;;;;;;;;;;5054189;28;20228;-82
2023/05/21 09:00:23;;;;;;;8.80;7.93;;;;;;;;;;5054691;28;20220;-82
2023/05/21 09:02:53;;;;;;;10.55;9.63;;;;;;;;;;5054764;28;20202;-83
2023/05/21 09:05:20;;;;;;;9.90;8.90;;;;;;;;;;5054833;28;20313;-82
2023/05/21 09:07:55;;;;;;;10.88;9.98;;;;;;;;;;5053797;28;20232;-82
2023/05/21 09:10:26;;;;;;;9.23;8.30;;;;;;;;;;5054105;28;20345;-83
2023/05/21 09:12:54;;;;;;;9.60;8.73;;;;;;;;;;5054123;28;20213;-82
2023/05/21 09:15:22;;;;;;;10.98;9.85;;;;;;;;;;5054103;28;20259;-84
2023/05/21 09:17:50;;;;;;;11.18;10.27;;;;;;;;;;5053869;28;20253;-82
2023/05/21 09:20:17;;;;;;;9.15;8.32;;;;;;;;;;5053763;28;20288;-84
2023/05/21 09:22:48;;;;;;;7.35;6.75;;;;;;;;;;5053820;28;20228;-82
2023/05/21 09:25:17;;;;;;;8.05;7.35;;;;;;;;;;5054048;28;20198;-83
2023/05/21 09:27:45;;;;;;;10.20;9.38;;;;;;;;;;5052819;28;20766;-83
2023/05/21 09:30:14;;;;;;;8.82;7.97;;;;;;;;;;5053479;28;20202;-83
2023/05/21 09:32:44;;;;;;;9.43;7.97;;;;;;;;;;5053254;28;20206;-82
2023/05/21 09:35:13;;;;;;;9.00;8.20;;;;;;;;;;5054276;28;20205;-83
2023/05/21 09:37:42;;;;;;;9.20;8.48;;;;;;;;;;5052787;28;20601;-82
2023/05/21 09:40:16;;;;;;;7.75;7.00;;;;;;;;;;5053474;28;20205;-82
2023/05/21 09:42:46;;;;;;;10.68;9.75;;;;;;;;;;5052969;28;20201;-84
2023/05/21 09:45:17;;;;;;;8.45;7.75;;;;;;;;;;5053420;28;20630;-82
2023/05/21 09:47:45;;;;;;;9.88;8.95;;;;;;;;;;5053413;28;20228;-83
2023/05/21 09:50:16;;;;;;;9.05;8.23;;;;;;;;;;5053412;28;20312;-83
2023/05/21 09:52:43;;;;;;;9.35;8.45;;;;;;;;;;5053244;28;20208;-83
2023/05/21 09:55:14;;;;;;;8.20;7.50;;;;;;;;;;5053512;28;20205;-83
2023/05/21 09:57:42;;;;;;;8.77;7.97;;;;;;;;;;5053207;28;20222;-83
2023/05/21 10:00:17;;;;;;;7.85;7.20;;;;;;;;;;5052747;28;20201;-81
2023/05/21 10:02:46;;;;;;;8.52;7.82;;;;;;;;;;5053225;28;20209;-82
2023/05/21 10:05:15;;;;;;;11.68;10.57;;;;;;;;;;5052326;28;20627;-82
2023/05/21 10:07:48;;;;;;;11.07;9.93;;;;;;;;;;5052440;28;20217;-82
2023/05/21 10:10:20;;;;;;;10.00;8.55;;;;;;;;;;5052690;28;20226;-83
2023/05/21 10:12:54;;;;;;;10.35;9.38;;;;;;;;;;5053283;28;20778;-82
2023/05/21 10:15:24;;;;;;;9.90;9.00;;;;;;;;;;5052767;28;20223;-81
2023/05/21 10:17:54;;;;;;;9.20;8.40;;;;;;;;;;5053288;28;20217;-82
2023/05/21 10:20:23;;;;;;;10.68;9.77;;;;;;;;;;5054047;28;20206;-84
2023/05/21 10:22:52;;;;;;;10.10;9.20;;;;;;;;;;5052524;28;20640;-83
2023/05/21 10:25:21;;;;;;;7.45;6.82;;;;;;;;;;5052214;28;20198;-84
2023/05/21 10:27:49;;;;;;;8.20;7.47;;;;;;;;;;5052520;28;20229;-83
2023/05/21 10:30:18;;;;;;;9.55;8.65;;;;;;;;;;5052183;28;20886;-82
2023/05/21 10:32:46;;;;;;;9.70;8.82;;;;;;;;;;5052308;28;20233;-83
2023/05/21 10:35:15;;;;;;;9.23;8.43;;;;;;;;;;5052298;28;20208;-83
2023/05/21 10:37:44;;;;;;;9.27;8.48;;;;;;;;;;5051916;28;20222;-81
2023/05/21 10:40:13;;;;;;;8.43;7.72;;;;;;;;;;5051997;28;20200;-82
2023/05/21 10:43:22;;;;;;;9.13;8.43;;;;;;;;;;5052640;28;20565;-83
2023/05/21 10:46:12;;;;;;;9.60;8.80;;;;;;;;;;5042401;28;20212;-81
2023/05/21 10:48:58;;;;;;;10.02;9.13;;;;;;;;;;5052683;28;20201;-82
2023/05/21 10:51:27;;;;;;;7.85;7.15;;;;;;;;;;5053077;28;20205;-82
2023/05/21 10:54:12;;;;;;;9.95;9.15;;;;;;;;;;5052707;28;20689;-82
2023/05/21 10:56:45;;;;;;;9.43;8.63;;;;;;;;;;5051962;28;20221;-82
2023/05/21 10:59:32;;;;;;;10.23;9.32;;;;;;;;;;5052125;28;20662;-83
2023/05/21 11:02:00;;;;;;;8.32;7.63;;;;;;;;;;5052430;28;20201;-82
2023/05/21 11:04:28;;;;;;;7.65;7.05;;;;;;;;;;5054042;28;20206;-81
2023/05/21 11:06:56;;;;;;;9.13;8.32;;;;;;;;;;5052845;28;20221;-84
2023/05/21 11:09:24;;;;;;;7.97;7.20;;;;;;;;;;5052096;28;20316;-83
2023/05/21 11:11:53;;;;;;;10.63;9.77;;;;;;;;;;5052409;28;20202;-81
2023/05/21 11:14:38;;;;;;;11.32;10.32;;;;;;;;;;5052482;28;20225;-81
2023/05/21 11:17:13;;;;;;;8.93;8.23;;;;;;;;;;5056688;28;20217;-83
2023/05/21 11:19:41;;;;;;;9.10;8.30;;;;;;;;;;5057716;28;20197;-81
2023/05/21 11:22:23;;;;;;;9.93;9.02;;;;;;;;;;5056402;28;20237;-84
2023/05/21 11:24:51;;;;;;;8.55;7.85;;;;;;;;;;5056926;28;20237;-83
2023/05/21 11:27:33;;;;;;;10.15;9.23;;;;;;;;;;5056318;28;20230;-81
2023/05/21 11:30:06;;;;;;;9.57;8.77;;;;;;;;;;5056343;28;20373;-81
2023/05/21 11:32:36;;;;;;;9.32;8.43;;;;;;;;;;5055784;28;20705;-81
2023/05/21 11:35:04;;;;;;;8.80;8.00;;;;;;;;;;5055947;28;20205;-83
2023/05/21 11:37:33;;;;;;;9.43;8.52;;;;;;;;;;5054992;28;20222;-82
2023/05/21 11:40:35;;;;;;;10.10;9.18;;;;;;;;;;5055064;28;20194;-83
2023/05/21 11:43:02;;;;;;;9.57;8.68;;;;;;;;;;5055244;28;20221;-83
2023/05/21 11:45:33;;;;;;;7.97;7.38;;;;;;;;;;5055643;28;20292;-83
2023/05/21 11:48:01;;;;;;;9.38;8.57;;;;;;;;;;5055547;28;20284;-82
2023/05/21 11:50:32;;;;;;;9.98;9.07;;;;;;;;;;5055222;28;20320;-81
2023/05/21 11:53:00;;;;;;;8.13;7.43;;;;;;;;;;5055203;28;20237;-82
2023/05/21 11:55:28;;;;;;;9.60;8.80;;;;;;;;;;5055036;28;20719;-82
2023/05/21 11:57:56;;;;;;;10.65;9.65;;;;;;;;;;5055273;28;20221;-81
2023/05/21 12:00:23;;;;;;;9.05;8.25;;;;;;;;;;5055625;28;20587;-82
2023/05/21 12:02:54;;;;;;;8.48;7.78;;;;;;;;;;5055008;28;20206;-81
2023/05/21 12:05:22;;;;;;;10.23;9.32;;;;;;;;;;5054959;28;20214;-83
2023/05/21 12:07:50;;;;;;;9.20;8.40;;;;;;;;;;5054716;28;20696;-83
2023/05/21 12:10:20;;;;;;;10.00;9.20;;;;;;;;;;5055431;28;20232;-83
2023/05/21 12:12:48;;;;;;;8.82;8.13;;;;;;;;;;5055263;28;20209;-83
2023/05/21 12:15:17;;;;;;;7.68;7.07;;;;;;;;;;5054837;28;20587;-83
2023/05/21 12:17:44;;;;;;;9.32;8.43;;;;;;;;;;5055054;28;20271;-81
2023/05/21 12:20:16;;;;;;;8.30;7.70;;;;;;;;;;5054390;28;20570;-83
2023/05/21 12:22:44;;;;;;;8.80;8.00;;;;;;;;;;5055180;28;20293;-84
2023/05/21 12:25:12;;;;;;;9.07;8.38;;;;;;;;;;5054981;28;20197;-83
2023/05/21 12:27:40;;;;;;;7.03;6.43;;;;;;;;;;5076593;22;20229;-82
2023/05/21 12:30:09;;;;;;;9.77;8.98;;;;;;;;;;5055387;28;20228;-82
2023/05/21 12:32:43;;;;;;;9.45;8.55;;;;;;;;;;5055052;28;20200;-81
2023/05/21 12:35:21;;;;;;;9.73;8.93;;;;;;;;;;5055284;28;20210;-82
2023/05/21 12:37:50;;;;;;;10.68;9.80;;;;;;;;;;5070803;28;20278;-81
2023/05/21 12:40:18;;;;;;;8.93;8.02;;;;;;;;;;5074774;28;20216;-82
2023/05/21 12:42:45;;;;;;;8.70;8.10;;;;;;;;;;5071349;28;20207;-81
2023/05/21 12:45:14;;;;;;;9.65;8.93;;;;;;;;;;5074086;28;20679;-83
2023/05/21 12:47:41;;;;;;;8.10;7.40;;;;;;;;;;5074246;28;20780;-82
2023/05/21 12:50:11;;;;;;;9.82;8.82;;;;;;;;;;5074753;28;20311;-82
2023/05/21 12:52:41;;;;;;;8.60;7.88;;;;;;;;;;5075387;28;20207;-82
2023/05/21 12:55:11;;;;;;;9.65;8.75;;;;;;;;;;5075618;28;20254;-83
2023/05/21 12:57:39;;;;;;;9.63;8.68;;;;;;;;;;5074651;28;20260;-81
2023/05/21 13:00:09;;;;;;;9.13;8.40;;;;;;;;;;5074322;28;20690;-82
2023/05/21 13:02:40;;;;;;;10.25;9.45;;;;;;;;;;5074405;28;20204;-82
2023/05/21 13:05:09;;;;;;;9.52;8.68;;;;;;;;;;5074652;28;20200;-82
2023/05/21 13:07:39;;;;;;;10.60;9.57;;;;;;;;;;5073538;28;20221;-82
2023/05/21 13:10:08;;;;;;;7.85;7.15;;;;;;;;;;5073702;28;20205;-82
2023/05/21 13:12:36;;;;;;;7.78;7.18;;;;;;;;;;5074686;28;20206;-82
2023/05/21 13:15:06;;;;;;;7.88;7.25;;;;;;;;;;5073318;28;20211;-81
2023/05/21 13:17:34;;;;;;;8.32;7.55;;;;;;;;;;5073670;28;20217;-81
2023/05/21 13:20:10;;;;;;;8.48;7.88;;;;;;;;;;5074485;28;20686;-82
2023/05/21 13:22:42;;;;;;;8.02;7.32;;;;;;;;;;5073922;28;20204;-82
2023/05/21 13:25:10;;;;;;;7.60;7.00;;;;;;;;;;5074093;28;20201;-81
2023/05/21 13:27:38;;;;;;;8.73;8.02;;;;;;;;;;5073409;28;20235;-82
2023/05/21 13:30:08;;;;;;;8.88;8.15;;;;;;;;;;5073697;28;20262;-81
2023/05/21 13:32:37;;;;;;;7.68;7.03;;;;;;;;;;5074603;28;20236;-80
2023/05/21 13:35:05;;;;;;;10.15;9.15;;;;;;;;;;5073812;28;20224;-80
2023/05/21 13:37:35;;;;;;;9.52;8.68;;;;;;;;;;5074120;28;20908;-80
2023/05/21 13:40:05;;;;;;;7.88;7.18;;;;;;;;;;5074238;28;20197;-80
2023/05/21 13:42:33;;;;;;;8.57;7.88;;;;;;;;;;5073209;28;20857;-80
2023/05/21 13:45:00;;;;;;;9.73;8.85;;;;;;;;;;5073575;28;20207;-80
2023/05/21 13:47:28;;;;;;;7.55;6.95;;;;;;;;;;5074171;28;20311;-80
2023/05/21 13:49:55;;;;;;;8.50;7.82;;;;;;;;;;5072650;28;20204;-80
2023/05/21 13:52:22;;;;;;;8.60;7.88;;;;;;;;;;5073277;28;20715;-80
2023/05/21 13:54:50;;;;;;;7.78;7.07;;;;;;;;;;5073527;28;20197;-79
2023/05/21 13:57:19;;;;;;;8.02;7.43;;;;;;;;;;5072536;28;20223;-79
2023/05/21 13:59:46;;;;;;;9.60;8.70;;;;;;;;;;5072980;28;20626;-79
2023/05/21 14:02:14;;;;;;;8.77;8.07;;;;;;;;;;5073158;28;20672;-80
2023/05/21 14:04:41;;;;;;;8.77;8.18;;;;;;;;;;5073115;28;20218;-82
2023/05/21 14:07:10;;;;;;;8.63;7.93;;;;;;;;;;5072936;28;20323;-78
2023/05/21 14:09:37;;;;;;;9.40;8.57;;;;;;;;;;5072981;28;20669;-80
2023/05/21 14:12:06;;;;;;;8.65;7.95;;;;;;;;;;5073523;28;20228;-79
2023/05/21 14:14:35;;;;;;;10.98;8.35;;;;;;;;;;5073176;28;20602;-80
2023/05/21 14:17:02;;;;;;;8.38;7.68;;;;;;;;;;5072821;28;20220;-79
2023/05/21 14:19:30;;;;;;;9.10;8.38;;;;;;;;;;5071709;28;20224;-80
2023/05/21 14:21:58;;;;;;;8.48;7.85;;;;;;;;;;5072130;28;20287;-84
2023/05/21 14:24:26;;;;;;;8.18;7.53;;;;;;;;;;5072094;28;20258;-81
2023/05/21 14:26:53;;;;;;;8.65;7.95;;;;;;;;;;5072118;28;20225;-83
2023/05/21 14:29:21;;;;;;;8.52;7.75;;;;;;;;;;5072353;28;20196;-80
2023/05/21 14:31:49;;;;;;;7.82;7.10;;;;;;;;;;5072522;28;20307;-80
2023/05/21 14:34:17;;;;;;;7.95;7.28;;;;;;;;;;5071883;28;20579;-79
2023/05/21 14:36:44;;;;;;;9.20;8.30;;;;;;;;;;5072576;28;20220;-79
2023/05/21 14:39:12;;;;;;;7.93;7.22;;;;;;;;;;5070796;28;20579;-82
2023/05/21 14:41:40;;;;;;;8.57;7.88;;;;;;;;;;5071563;28;20284;-80
2023/05/21 14:44:07;;;;;;;8.77;8.07;;;;;;;;;;5072249;28;20270;-82
2023/05/21 14:46:35;;;;;;;9.80;8.95;;;;;;;;;;5071752;28;20216;-82
2023/05/21 14:49:04;;;;;;;9.70;8.90;;;;;;;;;;5071781;28;20201;-81
2023/05/21 14:51:31;;;;;;;9.65;8.68;;;;;;;;;;5075134;28;20243;-81